Flight Track Log - Related Links

Times and Time Zones

All times are in EDT time to prevent confusion due to time zone crossing. See the CTL16 flight status page for this flight to view local times or setup timezone preferences in your user account.


Time Position Orientation Groundspeed Altitude Reporting Facility
EDT Latitude Longitude Course Direction KTS MPH feet Rate Location/Type
Thu 08:38:24 PM 39.3833 -84.4667 33° Northeast 178 205 1,700  Level Cincinnati TRACON
Thu 08:38:52 PM 39.4042 -84.4492 33° Northeast 171 197 1,800 340 Climbing Indianapolis Center
Thu 08:39:17 PM 39.4181 -84.4319 44° Northeast 175 201 2,000 358 Climbing Indianapolis Center
Thu 08:39:59 PM 39.4375 -84.4003 52° Northeast 180 207 2,200 300 Climbing Indianapolis Center
Thu 08:40:17 PM 39.4514 -84.3825 45° Northeast 184 212 2,300 871 Climbing Indianapolis Center
Thu 08:41:01 PM 39.4728 -84.3497 50° Northeast 188 216 3,100 1,082 Climbing Indianapolis Center
Thu 08:41:18 PM 39.4892 -84.3308 42° Northeast 177 204 3,400 787 Climbing Indianapolis Center
Thu 08:42:02 PM 39.5056 -84.3067 49° Northeast 176 203 3,900 885 Climbing Indianapolis Center
Thu 08:42:19 PM 39.5197 -84.2889 44° Northeast 163 188 4,300 1,065 Climbing Indianapolis Center
Thu 08:43:04 PM 39.5436 -84.2561 47° Northeast 169 194 5,000 885 Climbing Indianapolis Center
Thu 08:43:20 PM 39.5525 -84.2472 38° Northeast 164 189 5,200 787 Climbing Indianapolis Center
Thu 08:44:05 PM 39.5747 -84.2133 50° Northeast 165 190 5,800 787 Climbing Indianapolis Center
Thu 08:44:21 PM 39.5833 -84.2025 44° Northeast 165 190 6,000 581 Climbing Indianapolis Center
Thu 08:45:07 PM 39.6086 -84.1694 45° Northeast 167 192 6,400 617 Climbing Indianapolis Center
Thu 08:46:08 PM 39.6439 -84.1233 45° Northeast 173 199 7,100 341 Climbing Indianapolis Center
Thu 08:47:10 PM 39.6819 -84.0744 45° Northeast 182 209 7,100  Level Indianapolis Center
Thu 08:48:11 PM 39.7253 -84.0206 44° Northeast 200 230 7,100  Level Indianapolis Center
Thu 08:49:13 PM 39.7678 -83.9647 45° Northeast 210 242 7,100  Level Indianapolis Center
Thu 08:50:14 PM 39.8106 -83.9106 44° Northeast 212 244 7,100  Level Indianapolis Center
Thu 08:51:16 PM 39.8514 -83.8536 47° Northeast 212 244 7,100  Level Indianapolis Center
Thu 08:52:17 PM 39.8922 -83.7967 47° Northeast 212 244 7,100  Level Indianapolis Center
Thu 08:53:27 PM 39.9467 -83.7253 45° Northeast 213 245 7,100 -46 Level Indianapolis Center
Thu 08:54:28 PM 39.9903 -83.6736 42° Northeast 214 246 7,000  Descending Indianapolis Center
Thu 08:55:21 PM 40.0228 -83.6317 45° Northeast 215 247 7,100  Climbing Indianapolis Center
Thu 08:56:22 PM 40.0669 -83.5758 44° Northeast 216 249 7,000  Descending Indianapolis Center
Thu 08:57:24 PM 40.1103 -83.5183 45° Northeast 218 251 7,100  Climbing Indianapolis Center
Thu 08:58:25 PM 40.1544 -83.4628 44° Northeast 218 251 7,000 -49 Descending Indianapolis Center
Thu 08:59:26 PM 40.1992 -83.4089 43° Northeast 216 249 7,000  Level Indianapolis Center
Thu 09:00:44 PM 40.2600 -83.3331 44° Northeast 217 250 7,000  Level Indianapolis Center
Thu 09:01:29 PM 40.2933 -83.2894 45° Northeast 215 247 7,000  Level Indianapolis Center
Thu 09:01:45 PM 40.3017 -83.2781 46° Northeast 214 246 7,000  Level Indianapolis Center
Thu 09:02:30 PM 40.3353 -83.2339 45° Northeast 213 245 7,000  Level Indianapolis Center
Thu 09:02:46 PM 40.3433 -83.2228 46° Northeast 214 246 7,000  Level Indianapolis Center
Thu 09:03:31 PM 40.3794 -83.1803 42° Northeast 214 246 7,000  Level Indianapolis Center
Thu 09:04:33 PM 40.4197 -83.1214 48° Northeast 213 245 7,000 49 Level Indianapolis Center
Thu 09:05:34 PM 40.4650 -83.0681 42° Northeast 216 249 7,100  Climbing Indianapolis Center
Thu 09:06:35 PM 40.5089 -83.0125 44° Northeast 217 250 7,000 -49 Descending Indianapolis Center
Thu 09:07:36 PM 40.5481 -82.9631 44° Northeast 215 247 7,000  Level Indianapolis Center
Thu 09:08:37 PM 40.5967 -82.8950 47° Northeast 217 250 7,000  Level Indianapolis Center
Thu 09:09:39 PM 40.6383 -82.8353 47° Northeast 218 251 7,000  Level Indianapolis Center
Thu 09:10:40 PM 40.6814 -82.7786 45° Northeast 218 251 7,000  Level Indianapolis Center
Thu 09:11:41 PM 40.7253 -82.7222 44° Northeast 217 250 7,000  Level Indianapolis Center
Thu 09:12:42 PM 40.7681 -82.6647 46° Northeast 217 250 7,000 -49 Level Indianapolis Center
Thu 09:13:44 PM 40.8114 -82.6075 45° Northeast 218 251 6,900  Descending Indianapolis Center
Thu 09:14:05 PM 40.8269 -82.5917 38° Northeast 220 253 7,000 115 Climbing Cleveland Center
Thu 09:14:36 PM 40.8506 -82.5567 48° Northeast 221 254 7,000  Level Cleveland Center
Thu 09:15:30 PM 40.8889 -82.5083 44° Northeast 222 255 7,000 52 Level Cleveland Center
Thu 09:16:31 PM 40.9294 -82.4547 45° Northeast 220 253 7,100 52 Climbing Cleveland Center
Thu 09:17:25 PM 40.9700 -82.4008 45° Northeast 225 259 7,100 -94 Level Cleveland Center
Thu 09:18:38 PM 41.0231 -82.3281 46° Northeast 220 253 6,900 -41 Descending Cleveland Center
Thu 09:19:51 PM 41.0764 -82.2606 44° Northeast 219 252 7,000 43 Climbing Cleveland Center
Thu 09:20:58 PM 41.1231 -82.1956 46° Northeast 216 249 7,000  Level Cleveland Center
Thu 09:21:52 PM 41.1633 -82.1442 44° Northeast 214 246 7,000  Level Cleveland Center
Thu 09:22:59 PM 41.2122 -82.0875 41° Northeast 217 250 7,000 -331 Level Cleveland Center
Thu 09:23:59 PM 41.2464 -82.0164 57° Northeast 237 273 6,300 -522 Descending Cleveland Center
Thu 09:24:54 PM 41.2764 -81.9508 59° Northeast 232 267 6,000 -148 Descending Cleveland Center
Thu 09:26:01 PM 41.3128 -81.8769 57° Northeast 207 238 6,000 -55 Level Cleveland Center
Thu 09:26:43 PM 41.3319 -81.8303 61° Northeast 205 236 5,900 -757 Descending Cleveland Center
Thu 09:27:44 PM 41.3661 -81.7617 56° Northeast 240 276 4,700 -984 Descending Cleveland Center
Thu 09:28:45 PM 41.4106 -81.6878 51° Northeast 226 260 3,900 -900 Descending Cleveland Center
Thu 09:30:04 PM 41.4531 -81.6136 53° Northeast 189 217 2,600 -950 Descending Cleveland Center
Thu 09:31:04 PM 41.4944 -81.6256 348° North 142 163 1,700 -793 Descending Cleveland Center
Thu 09:32:05 PM 41.5233 -81.6564 321° Northwest 121 139 1,000 -689 Descending Cleveland Center
Thu 09:34:00 PM 41.5167 -81.6667 270° West  Level FlightAware Approximate

Login

Don't have an account? Register now (free) for customized features, flight alerts, and more!